Bremen, Maine
Current Conditions -  °F | °C
As of 5:15 AM on Sunday 25 Jan 2015 (Local Time) from KRKD Reporting Station
Broken Clouds Broken Clouds  
Wind Chill: 21°   Ceiling: 9000
Heat Index: 30°   Visibility: 10mi
Dew Point: 25°   Wind: 12mph
Humidity: 80%   Direction: 280°W
Pressure: 29.27"   Gusts: NA
Location:  44°N, 69.4°W
Report Text: KRKD 251015Z AUTO 28010KT 10SM BKN090 M01/M04 A2927 RMK AO1
Loading
Personal Weather Stations






























Interactive Weather Map New forecast layout! Learn more

10-Day Weather Forecast

Advertisements
Track Severe Weather on mobile